createdAt,value
2022-09-10T00:01:01.892Z,100.00
2022-09-10T00:03:29.504Z,100.00
2022-09-10T00:05:57.093Z,100.00
2022-09-10T00:08:24.926Z,100.00
2022-09-10T00:10:53.027Z,100.00
2022-09-10T00:13:23.223Z,100.00
2022-09-10T00:15:53.026Z,100.00
2022-09-10T00:18:22.952Z,100.00
2022-09-10T00:20:53.063Z,100.00
2022-09-10T00:23:23.841Z,100.00
2022-09-10T00:25:53.351Z,100.00
2022-09-10T00:28:24.241Z,100.00
2022-09-10T00:30:54.507Z,100.00
2022-09-10T00:33:23.182Z,100.00
2022-09-10T00:35:51.033Z,100.00
2022-09-10T00:38:18.728Z,100.00
2022-09-10T00:40:46.998Z,100.00
2022-09-10T00:43:18.625Z,100.00
2022-09-10T00:45:50.662Z,100.00
2022-09-10T00:48:23.202Z,100.00
2022-09-10T00:50:51.748Z,100.00
2022-09-10T00:53:29.219Z,100.00
2022-09-10T00:56:00.150Z,100.00
2022-09-10T00:58:29.602Z,100.00
2022-09-10T01:01:00.978Z,100.00
2022-09-10T01:03:30.230Z,100.00
2022-09-10T01:05:58.562Z,100.00
2022-09-10T01:08:27.305Z,100.00
2022-09-10T01:11:10.026Z,100.00
2022-09-10T01:14:00.510Z,100.00
2022-09-10T01:16:37.414Z,100.00
2022-09-10T01:19:26.892Z,100.00
2022-09-10T01:22:06.278Z,100.00
2022-09-10T01:24:52.157Z,100.00
2022-09-10T01:27:33.030Z,100.00
2022-09-10T01:30:06.568Z,100.00
2022-09-10T01:32:40.757Z,100.00
2022-09-10T01:35:16.192Z,100.00
2022-09-10T01:37:47.430Z,100.00
2022-09-10T01:40:17.632Z,100.00
2022-09-10T01:42:47.010Z,100.00
2022-09-10T01:45:16.247Z,100.00
2022-09-10T01:48:04.321Z,100.00
2022-09-10T01:50:41.194Z,100.00
2022-09-10T01:53:31.404Z,100.00
2022-09-10T01:56:05.070Z,100.00
2022-09-10T01:58:38.511Z,100.00
2022-09-10T02:01:14.889Z,100.00
2022-09-10T02:03:45.069Z,100.00
2022-09-10T02:06:16.611Z,100.00
2022-09-10T02:08:48.751Z,100.00
2022-09-10T02:11:16.891Z,100.00
2022-09-10T02:13:45.919Z,100.00
2022-09-10T02:16:16.709Z,100.00
2022-09-10T02:18:44.638Z,100.00
2022-09-10T02:21:13.149Z,100.00
2022-09-10T02:23:44.437Z,100.00
2022-09-10T02:26:14.265Z,100.00
2022-09-10T02:28:43.474Z,100.00
2022-09-10T02:31:12.979Z,100.00
2022-09-10T02:33:40.658Z,100.00
2022-09-10T02:36:08.804Z,100.00
2022-09-10T02:38:36.433Z,100.00
2022-09-10T02:41:04.089Z,100.00
2022-09-10T02:43:31.746Z,100.00
2022-09-10T02:46:00.443Z,100.00
2022-09-10T02:48:30.829Z,100.00
2022-09-10T02:50:59.036Z,100.00
2022-09-10T02:53:26.952Z,100.00
2022-09-10T02:55:55.186Z,100.00
2022-09-10T02:58:22.789Z,100.00
2022-09-10T03:00:50.682Z,100.00
2022-09-10T03:03:19.318Z,100.00
2022-09-10T03:05:48.221Z,100.00
2022-09-10T03:08:15.990Z,100.00
2022-09-10T03:10:43.564Z,100.00
2022-09-10T03:13:11.198Z,100.00
2022-09-10T03:15:39.095Z,100.00
2022-09-10T03:18:06.979Z,100.00
2022-09-10T03:20:34.607Z,100.00
2022-09-10T03:23:03.908Z,100.00
2022-09-10T03:25:31.529Z,100.00
2022-09-10T03:27:59.739Z,100.00
2022-09-10T03:30:27.338Z,100.00
2022-09-10T03:32:55.060Z,100.00
2022-09-10T03:35:22.632Z,100.00
2022-09-10T03:37:50.368Z,100.00
2022-09-10T03:40:19.298Z,100.00
2022-09-10T03:42:46.937Z,100.00
2022-09-10T03:45:14.620Z,100.00
2022-09-10T03:47:42.431Z,100.00
2022-09-10T03:50:10.549Z,100.00
2022-09-10T03:52:38.151Z,100.00
2022-09-10T03:55:06.483Z,100.00
2022-09-10T03:57:35.365Z,100.00
2022-09-10T04:00:03.221Z,100.00
2022-09-10T04:02:30.897Z,100.00
2022-09-10T04:04:58.583Z,100.00
2022-09-10T04:07:26.169Z,100.00
2022-09-10T04:09:53.782Z,100.00
2022-09-10T04:12:21.353Z,100.00
2022-09-10T04:14:50.259Z,100.00
2022-09-10T04:17:17.962Z,100.00
2022-09-10T04:19:45.642Z,100.00
2022-09-10T04:22:13.317Z,100.00
2022-09-10T04:24:42.162Z,100.00
2022-09-10T04:27:09.755Z,100.00
2022-09-10T04:29:38.116Z,100.00
2022-09-10T04:32:07.321Z,100.00
2022-09-10T04:34:34.989Z,100.00
2022-09-10T04:37:02.574Z,100.00
2022-09-10T04:39:30.193Z,100.00
2022-09-10T04:41:57.976Z,100.00
2022-09-10T04:44:25.632Z,100.00
2022-09-10T04:46:53.201Z,100.00
2022-09-10T04:49:22.389Z,100.00
2022-09-10T04:51:49.983Z,100.00
2022-09-10T04:54:17.867Z,100.00
2022-09-10T04:56:47.629Z,100.00
2022-09-10T04:59:15.331Z,100.00
2022-09-10T05:01:42.956Z,100.00
2022-09-10T05:04:10.630Z,100.00
2022-09-10T05:06:39.590Z,100.00
2022-09-10T05:09:07.216Z,100.00
2022-09-10T05:11:36.672Z,100.00
2022-09-10T05:14:05.271Z,100.00
2022-09-10T05:16:33.003Z,100.00
2022-09-10T05:19:00.701Z,100.00
2022-09-10T05:21:29.105Z,100.00
2022-09-10T05:23:58.083Z,100.00
2022-09-10T05:26:26.274Z,100.00
2022-09-10T05:28:54.836Z,100.00
2022-09-10T05:31:22.504Z,100.00
2022-09-10T05:33:50.130Z,100.00
2022-09-10T05:36:17.813Z,100.00
2022-09-10T05:38:46.354Z,100.00
2022-09-10T05:41:15.455Z,100.00
2022-09-10T05:43:43.090Z,100.00
2022-09-10T05:46:10.742Z,100.00
2022-09-10T05:48:41.769Z,100.00
2022-09-10T05:51:09.800Z,100.00
2022-09-10T05:53:38.241Z,100.00
2022-09-10T05:56:07.479Z,100.00
2022-09-10T05:58:36.688Z,100.00
2022-09-10T06:01:04.466Z,100.00
2022-09-10T06:03:32.094Z,100.00
2022-09-10T06:05:59.711Z,100.00
2022-09-10T06:08:27.313Z,100.00
2022-09-10T06:10:57.695Z,100.00
2022-09-10T06:13:25.919Z,100.00
2022-09-10T06:15:55.209Z,100.00
2022-09-10T06:18:23.379Z,100.00
2022-09-10T06:20:52.500Z,100.00
2022-09-10T06:23:20.259Z,100.00
2022-09-10T06:25:48.111Z,100.00
2022-09-10T06:28:15.988Z,100.00
2022-09-10T06:30:43.635Z,100.00
2022-09-10T06:33:13.976Z,100.00
2022-09-10T06:35:41.589Z,100.00
2022-09-10T06:38:09.181Z,100.00
2022-09-10T06:40:38.075Z,100.00
2022-09-10T06:43:05.961Z,100.00
2022-09-10T06:45:33.589Z,100.00
2022-09-10T06:50:54.970Z,100.00
2022-09-10T06:53:24.042Z,100.00
2022-09-10T06:55:52.040Z,100.00
2022-09-10T06:58:20.787Z,100.00
2022-09-10T07:00:48.588Z,100.00
2022-09-10T07:03:16.762Z,100.00
2022-09-10T07:05:45.544Z,100.00
2022-09-10T07:08:17.311Z,100.00
2022-09-10T07:10:47.251Z,100.00
2022-09-10T07:13:15.360Z,100.00
2022-09-10T07:15:47.342Z,100.00
2022-09-10T07:18:15.314Z,100.00
2022-09-10T07:20:43.747Z,100.00
2022-09-10T07:23:12.829Z,100.00
2022-09-10T07:25:42.630Z,100.00
2022-09-10T07:28:14.018Z,100.00
2022-09-10T07:30:42.801Z,100.00
2022-09-10T07:33:12.034Z,100.00
2022-09-10T07:35:40.269Z,100.00
2022-09-10T07:38:14.194Z,100.00
2022-09-10T07:40:44.017Z,100.00
2022-09-10T07:43:11.816Z,100.00
2022-09-10T07:45:41.525Z,100.00
2022-09-10T07:48:09.167Z,100.00
2022-09-10T07:50:37.048Z,100.00
2022-09-10T07:53:05.391Z,100.00
2022-09-10T07:55:33.576Z,100.00
2022-09-10T07:58:02.854Z,100.00
2022-09-10T08:00:30.885Z,100.00
2022-09-10T08:02:58.609Z,100.00
2022-09-10T08:05:28.827Z,100.00
2022-09-10T08:08:02.355Z,100.00
2022-09-10T08:10:30.510Z,100.00
2022-09-10T08:12:59.186Z,100.00
2022-09-10T08:15:28.626Z,100.00
2022-09-10T08:17:56.542Z,100.00
2022-09-10T08:20:26.564Z,100.00
2022-09-10T08:22:57.218Z,100.00
2022-09-10T08:25:25.156Z,100.00
2022-09-10T08:27:52.882Z,100.00
2022-09-10T08:30:20.508Z,100.00
2022-09-10T08:32:49.805Z,100.00
2022-09-10T08:35:17.724Z,100.00
2022-09-10T08:37:45.338Z,100.00
2022-09-10T08:40:14.526Z,100.00
2022-09-10T08:42:46.605Z,100.00
2022-09-10T08:45:20.645Z,100.00
2022-09-10T08:47:56.637Z,100.00
2022-09-10T08:50:32.328Z,100.00
2022-09-10T08:53:10.804Z,100.00
2022-09-10T08:55:44.989Z,100.00
2022-09-10T08:58:20.787Z,100.00
2022-09-10T09:00:52.957Z,100.00
2022-09-10T09:03:28.309Z,100.00
2022-09-10T09:05:58.814Z,100.00
2022-09-10T09:08:28.855Z,100.00
2022-09-10T09:11:05.948Z,100.00
2022-09-10T09:13:58.221Z,100.00
2022-09-10T09:16:41.681Z,100.00
2022-09-10T09:19:25.159Z,100.00
2022-09-10T09:21:54.010Z,100.00
2022-09-10T09:24:31.423Z,100.00
2022-09-10T09:27:09.773Z,100.00
2022-09-10T09:29:45.187Z,100.00
2022-09-10T09:32:18.662Z,100.00
2022-09-10T09:34:51.216Z,100.00
2022-09-10T09:37:21.161Z,100.00
2022-09-10T09:39:59.483Z,100.00
2022-09-10T09:42:39.859Z,100.00
2022-09-10T09:45:17.197Z,100.00
2022-09-10T09:47:45.827Z,100.00
2022-09-10T09:50:18.381Z,100.00
2022-09-10T09:52:47.383Z,100.00
2022-09-10T09:55:27.303Z,100.00
2022-09-10T09:58:30.458Z,100.00
2022-09-10T10:01:12.945Z,100.00
2022-09-10T10:03:50.150Z,100.00
2022-09-10T10:06:20.575Z,100.00
2022-09-10T10:08:55.923Z,100.00
2022-09-10T10:11:39.352Z,100.00
2022-09-10T10:14:23.391Z,100.00
2022-09-10T10:16:57.402Z,100.00
2022-09-10T10:19:33.976Z,100.00
2022-09-10T10:22:21.158Z,100.00
2022-09-10T10:24:51.342Z,100.00
2022-09-10T10:27:24.194Z,100.00
2022-09-10T10:29:56.295Z,100.00
2022-09-10T10:32:44.557Z,100.00
2022-09-10T10:35:35.753Z,100.00
2022-09-10T10:38:29.957Z,100.00
2022-09-10T10:41:24.448Z,97.35
2022-09-10T10:44:07.488Z,100.00
2022-09-10T10:46:44.881Z,100.00
2022-09-10T10:49:26.551Z,100.00
2022-09-10T10:52:08.754Z,97.34
2022-09-10T10:54:52.402Z,97.96
2022-09-10T10:57:29.562Z,99.33
2022-09-10T11:00:02.119Z,95.73
2022-09-10T11:02:41.516Z,94.62
2022-09-10T11:05:21.412Z,95.25
2022-09-10T11:07:49.418Z,93.17
2022-09-10T11:10:24.125Z,95.50
2022-09-10T11:13:02.698Z,95.13
2022-09-10T11:15:36.242Z,94.17
2022-09-10T11:18:11.560Z,95.43
2022-09-10T11:20:45.172Z,93.86
2022-09-10T11:23:24.696Z,94.83
2022-09-10T11:26:00.454Z,95.36
2022-09-10T11:28:32.436Z,92.75
2022-09-10T11:31:07.629Z,92.68
2022-09-10T11:33:43.083Z,92.26
2022-09-10T11:36:17.328Z,91.03
2022-09-10T11:38:52.883Z,90.43
2022-09-10T11:41:25.804Z,90.03
2022-09-10T11:44:00.761Z,87.43
2022-09-10T11:46:34.601Z,87.72
2022-09-10T11:49:10.190Z,87.46
2022-09-10T11:51:39.098Z,86.19
2022-09-10T11:54:13.515Z,86.40
2022-09-10T11:56:53.837Z,86.66
2022-09-10T11:59:37.353Z,85.53
2022-09-10T12:02:32.581Z,85.88
2022-09-10T12:05:09.339Z,85.69
2022-09-10T12:07:46.965Z,82.00
2022-09-10T12:10:24.078Z,81.29
2022-09-10T12:12:53.414Z,82.12
2022-09-10T12:15:23.372Z,81.38
2022-09-10T12:17:57.711Z,83.36
2022-09-10T12:20:31.913Z,82.48
2022-09-10T12:23:00.985Z,84.08
2022-09-10T12:25:34.533Z,85.72
2022-09-10T12:28:07.741Z,84.86
2022-09-10T12:31:03.727Z,86.16
2022-09-10T12:34:07.473Z,84.45
2022-09-10T12:37:16.073Z,83.00
2022-09-10T12:39:45.782Z,83.76
2022-09-10T12:42:31.725Z,86.31
2022-09-10T12:45:00.080Z,86.86
2022-09-10T12:47:47.028Z,87.25
2022-09-10T12:50:23.120Z,88.95
2022-09-10T12:53:12.083Z,89.29
2022-09-10T12:55:53.635Z,92.15
2022-09-10T12:58:30.067Z,92.70
2022-09-10T13:01:11.859Z,92.44
2022-09-10T13:03:54.005Z,93.96
2022-09-10T13:06:35.912Z,92.85
2022-09-10T13:09:16.764Z,91.30
2022-09-10T13:11:49.511Z,89.55
2022-09-10T13:14:22.200Z,88.85
2022-09-10T13:16:50.400Z,88.26
2022-09-10T13:19:50.991Z,89.15
2022-09-10T13:23:03.843Z,88.02
2022-09-10T13:25:41.488Z,88.64
2022-09-10T13:29:00.645Z,89.71
2022-09-10T13:31:33.454Z,89.51
2022-09-10T13:34:36.018Z,91.13
2022-09-10T13:37:26.491Z,90.61
2022-09-10T13:40:19.074Z,90.69
2022-09-10T13:43:01.741Z,88.45
2022-09-10T13:45:38.541Z,87.73
2022-09-10T13:48:14.848Z,88.88
2022-09-10T13:50:50.741Z,88.90
2022-09-10T13:53:20.669Z,90.75
2022-09-10T13:55:56.493Z,92.76
2022-09-10T13:58:28.556Z,94.22
2022-09-10T14:00:58.613Z,94.97
2022-09-10T14:03:32.884Z,93.59
2022-09-10T14:06:04.156Z,94.36
2022-09-10T14:08:35.798Z,94.64
2022-09-10T14:11:08.047Z,94.00
2022-09-10T14:13:40.407Z,94.82
2022-09-10T14:16:12.235Z,93.86
2022-09-10T14:18:45.718Z,94.15
2022-09-10T14:21:15.557Z,92.26
2022-09-10T14:23:45.821Z,91.63
2022-09-10T14:26:19.794Z,90.50
2022-09-10T14:28:52.681Z,89.90
2022-09-10T14:31:24.256Z,90.40
2022-09-10T14:33:54.750Z,89.60
2022-09-10T14:36:31.247Z,88.70
2022-09-10T14:39:06.442Z,87.22
2022-09-10T14:41:36.731Z,84.50
2022-09-10T14:44:29.695Z,85.64
2022-09-10T14:47:00.275Z,83.73
2022-09-10T14:49:31.773Z,83.15
2022-09-10T14:52:01.515Z,84.27
2022-09-10T14:54:31.925Z,85.26
2022-09-10T14:57:02.830Z,86.93
2022-09-10T14:59:34.306Z,89.65
2022-09-10T15:02:05.938Z,88.19
2022-09-10T15:04:34.911Z,88.98
2022-09-10T15:07:02.698Z,89.71
2022-09-10T15:09:31.227Z,89.76
2022-09-10T15:12:05.031Z,89.78
2022-09-10T15:14:33.582Z,89.34
2022-09-10T15:17:01.477Z,90.02
2022-09-10T15:19:29.409Z,89.53
2022-09-10T15:21:59.576Z,89.48
2022-09-10T15:24:28.478Z,89.73
2022-09-10T15:26:57.269Z,87.40
2022-09-10T15:29:26.119Z,87.25
2022-09-10T15:31:54.422Z,88.88
2022-09-10T15:34:22.012Z,89.59
2022-09-10T15:36:49.674Z,90.43
2022-09-10T15:39:18.588Z,90.01
2022-09-10T15:41:46.283Z,90.25
2022-09-10T15:44:14.081Z,89.70
2022-09-10T15:46:44.455Z,87.86
2022-09-10T15:49:12.605Z,87.01
2022-09-10T15:51:41.251Z,86.92
2022-09-10T15:54:10.737Z,86.89
2022-09-10T15:56:40.666Z,86.60
2022-09-10T15:59:09.002Z,86.96
2022-09-10T16:01:38.252Z,86.81
2022-09-10T16:04:06.803Z,88.33
2022-09-10T16:06:36.515Z,88.51
2022-09-10T16:09:07.067Z,85.97
2022-09-10T16:11:37.122Z,86.16
2022-09-10T16:14:08.427Z,87.32
2022-09-10T16:16:37.250Z,86.68
2022-09-10T16:19:05.462Z,85.84
2022-09-10T16:21:36.023Z,87.11
2022-09-10T16:24:06.203Z,86.68
2022-09-10T16:26:36.469Z,87.02
2022-09-10T16:29:07.196Z,87.74
2022-09-10T16:31:36.597Z,88.01
2022-09-10T16:34:06.063Z,87.31
2022-09-10T16:36:36.836Z,87.60
2022-09-10T16:39:07.253Z,89.05
2022-09-10T16:41:34.817Z,89.47
2022-09-10T16:44:02.794Z,88.24
2022-09-10T16:46:31.825Z,88.40
2022-09-10T16:48:59.676Z,87.62
2022-09-10T16:51:29.041Z,89.41
2022-09-10T16:54:01.508Z,95.55
2022-09-10T16:56:30.658Z,97.34
2022-09-10T16:58:58.297Z,98.57
2022-09-10T17:01:25.977Z,98.59
2022-09-10T17:03:55.193Z,100.00
2022-09-10T17:06:25.116Z,100.00
2022-09-10T17:08:59.152Z,99.92
2022-09-10T17:11:32.003Z,99.26
2022-09-10T17:14:01.212Z,100.00
2022-09-10T17:16:30.796Z,100.00
2022-09-10T17:19:01.953Z,100.00
2022-09-10T17:21:33.454Z,100.00
2022-09-10T17:24:02.993Z,100.00
2022-09-10T17:26:31.689Z,100.00
2022-09-10T17:29:01.045Z,100.00
2022-09-10T17:31:29.785Z,100.00
2022-09-10T17:33:59.066Z,100.00
2022-09-10T17:36:29.151Z,100.00
2022-09-10T17:38:58.885Z,100.00
2022-09-10T17:41:27.961Z,100.00
2022-09-10T17:43:56.450Z,100.00
2022-09-10T17:46:24.224Z,100.00
2022-09-10T17:48:53.493Z,99.77
2022-09-10T17:51:22.976Z,99.45
2022-09-10T17:53:53.034Z,99.39
2022-09-10T17:56:21.015Z,100.00
2022-09-10T17:58:49.320Z,100.00
2022-09-10T18:01:23.286Z,100.00
2022-09-10T18:03:51.662Z,100.00
2022-09-10T18:06:21.356Z,100.00
2022-09-10T18:08:50.335Z,100.00
2022-09-10T18:11:22.000Z,100.00
2022-09-10T18:13:50.745Z,100.00
2022-09-10T18:16:21.391Z,100.00
2022-09-10T18:18:53.750Z,99.81
2022-09-10T18:21:23.895Z,100.00
2022-09-10T18:23:53.214Z,100.00
2022-09-10T18:26:25.879Z,100.00
2022-09-10T18:28:56.350Z,99.56
2022-09-10T18:31:25.084Z,99.63
2022-09-10T18:33:53.610Z,99.68
2022-09-10T18:36:21.671Z,99.53
2022-09-10T18:38:49.694Z,99.97
2022-09-10T18:41:19.858Z,100.00
2022-09-10T18:43:55.570Z,100.00
2022-09-10T18:46:24.200Z,100.00
2022-09-10T18:48:52.746Z,100.00
2022-09-10T18:51:22.173Z,100.00
2022-09-10T18:53:53.901Z,100.00
2022-09-10T18:56:24.122Z,100.00
2022-09-10T18:58:56.028Z,100.00
2022-09-10T19:01:24.884Z,100.00
2022-09-10T19:03:53.008Z,100.00
2022-09-10T19:06:22.880Z,100.00
2022-09-10T19:08:53.406Z,100.00
2022-09-10T19:11:22.298Z,100.00
2022-09-10T19:13:52.050Z,100.00
2022-09-10T19:16:22.993Z,100.00
2022-09-10T19:18:53.616Z,100.00
2022-09-10T19:21:22.051Z,100.00
2022-09-10T19:23:50.567Z,100.00
2022-09-10T19:26:19.183Z,100.00
2022-09-10T19:28:47.710Z,100.00
2022-09-10T19:31:17.643Z,100.00
2022-09-10T19:33:48.002Z,100.00
2022-09-10T19:36:17.645Z,100.00
2022-09-10T19:38:46.936Z,100.00
2022-09-10T19:41:18.771Z,100.00
2022-09-10T19:43:47.740Z,100.00
2022-09-10T19:46:16.954Z,100.00
2022-09-10T19:48:47.046Z,100.00
2022-09-10T19:51:16.700Z,100.00
2022-09-10T19:53:44.927Z,100.00
2022-09-10T19:56:19.711Z,100.00
2022-09-10T19:58:50.586Z,100.00
2022-09-10T20:01:20.852Z,100.00
2022-09-10T20:03:52.009Z,100.00
2022-09-10T20:06:23.387Z,100.00
2022-09-10T20:08:50.985Z,100.00
2022-09-10T20:11:20.322Z,100.00
2022-09-10T20:13:48.517Z,100.00
2022-09-10T20:16:18.301Z,100.00
2022-09-10T20:18:46.597Z,100.00
2022-09-10T20:21:17.723Z,100.00
2022-09-10T20:23:47.076Z,100.00
2022-09-10T20:26:17.038Z,100.00
2022-09-10T20:28:45.189Z,100.00
2022-09-10T20:31:13.841Z,100.00
2022-09-10T20:33:43.374Z,100.00
2022-09-10T20:36:14.114Z,100.00
2022-09-10T20:38:43.475Z,100.00
2022-09-10T20:41:12.784Z,100.00
2022-09-10T20:43:40.864Z,100.00
2022-09-10T20:46:15.734Z,100.00
2022-09-10T20:48:48.859Z,100.00
2022-09-10T20:51:18.395Z,100.00
2022-09-10T20:53:48.390Z,100.00
2022-09-10T20:56:19.204Z,100.00
2022-09-10T20:58:47.849Z,100.00
2022-09-10T21:01:18.836Z,100.00
2022-09-10T21:03:48.234Z,100.00
2022-09-10T21:06:19.604Z,100.00
2022-09-10T21:08:49.230Z,100.00
2022-09-10T21:11:18.676Z,100.00
2022-09-10T21:13:47.836Z,100.00
2022-09-10T21:16:18.028Z,100.00
2022-09-10T21:18:53.587Z,100.00
2022-09-10T21:21:25.263Z,100.00
2022-09-10T21:23:55.755Z,100.00
2022-09-10T21:26:26.510Z,100.00
2022-09-10T21:28:56.097Z,100.00
2022-09-10T21:31:24.251Z,100.00
2022-09-10T21:33:52.294Z,100.00
2022-09-10T21:36:21.495Z,100.00
2022-09-10T21:38:49.394Z,100.00
2022-09-10T21:41:21.319Z,100.00
2022-09-10T21:43:48.990Z,100.00
2022-09-10T21:46:16.600Z,100.00
2022-09-10T21:48:45.020Z,100.00
2022-09-10T21:51:14.399Z,100.00
2022-09-10T21:53:43.010Z,100.00
2022-09-10T21:56:12.411Z,100.00
2022-09-10T21:58:43.143Z,100.00
2022-09-10T22:01:12.828Z,100.00
2022-09-10T22:03:41.004Z,100.00
2022-09-10T22:06:10.397Z,100.00
2022-09-10T22:08:40.335Z,100.00
2022-09-10T22:11:09.964Z,100.00
2022-09-10T22:13:38.981Z,100.00
2022-09-10T22:16:09.131Z,100.00
2022-09-10T22:18:37.927Z,100.00
2022-09-10T22:21:06.767Z,100.00
2022-09-10T22:23:36.883Z,100.00
2022-09-10T22:26:05.421Z,100.00
2022-09-10T22:28:34.914Z,100.00
2022-09-10T22:31:13.050Z,100.00
2022-09-10T22:33:42.929Z,100.00
2022-09-10T22:36:15.763Z,100.00
2022-09-10T22:38:44.281Z,100.00
2022-09-10T22:41:14.284Z,100.00
2022-09-10T22:43:42.702Z,100.00
2022-09-10T22:46:12.117Z,100.00
2022-09-10T22:48:42.453Z,100.00
2022-09-10T22:51:11.931Z,100.00
2022-09-10T22:53:41.754Z,100.00
2022-09-10T22:56:10.601Z,100.00
2022-09-10T22:58:39.156Z,100.00
2022-09-10T23:01:08.968Z,100.00
2022-09-10T23:03:38.250Z,100.00
2022-09-10T23:06:08.324Z,100.00
2022-09-10T23:08:37.036Z,100.00
2022-09-10T23:11:09.352Z,100.00
2022-09-10T23:13:37.240Z,100.00
2022-09-10T23:16:15.547Z,100.00
2022-09-10T23:18:48.221Z,100.00
2022-09-10T23:21:15.834Z,100.00
2022-09-10T23:23:46.538Z,100.00
2022-09-10T23:26:14.538Z,100.00
2022-09-10T23:28:43.024Z,100.00
2022-09-10T23:31:13.341Z,100.00
2022-09-10T23:33:44.231Z,100.00
2022-09-10T23:36:13.380Z,100.00
2022-09-10T23:38:42.535Z,100.00
2022-09-10T23:41:11.759Z,100.00
2022-09-10T23:43:40.234Z,100.00
2022-09-10T23:46:09.102Z,100.00
2022-09-10T23:48:36.710Z,100.00
2022-09-10T23:51:06.907Z,100.00
2022-09-10T23:53:34.502Z,100.00
2022-09-10T23:56:02.997Z,100.00
2022-09-10T23:58:30.923Z,100.00
